Time;durP1;ratioP1;P1;durP2;ratioP2;P2;SDS_P1;SDS_P2;PMS_P1;PMS_P2;Temp;Humidity;BMP_temperature;BMP_pressure;BME280_temperature;BME280_humidity;BME280_pressure;Samples;Min_cycle;Max_cycle;Signal;HPM_P1;HPM_P2
2021/12/05 00:23:46;;;;;;;42.83;23.67;;;;;;;-0.86;64.48;100128.79;1690258;84;21044;-70
2021/12/05 00:26:13;;;;;;;37.23;22.93;;;;;;;-0.79;64.20;100130.27;1692189;82;21075;-70
2021/12/05 00:29:06;;;;;;;34.05;20.40;;;;;;;-0.81;63.95;100126.91;1700073;82;21130;-69
2021/12/05 00:31:38;;;;;;;39.10;22.15;;;;;;;-0.81;63.95;100126.91;1705130;83;21063;-70
2021/12/05 00:34:06;;;;;;;32.67;21.77;;;;;;;-0.83;63.74;100122.69;1695280;83;21542;-70
2021/12/05 00:42:11;;;;;;;30.77;18.50;;;;;;;-0.84;63.54;100128.73;1618334;87;21667;-70
2021/12/05 01:00:34;;;;;;;28.47;16.27;;;;;;;-0.94;62.92;100112.76;1731947;80;21014;-69
2021/12/05 01:02:19;;;;;;;30.25;18.17;;;;;;;-0.97;63.09;100120.16;1733944;81;21085;-68
2021/12/05 01:12:40;;;;;;;38.55;24.87;;;;;;;-0.91;63.38;100141.49;1749198;80;20996;-69
2021/12/05 01:15:05;;;;;;;39.63;26.35;;;;;;;-0.95;63.56;100144.64;1745509;80;21040;-70
2021/12/05 01:17:58;;;;;;;47.58;25.88;;;;;;;-0.98;63.85;100144.74;1716483;81;21065;-70
2021/12/05 01:20:16;;;;;;;40.60;25.15;;;;;;;-1.01;64.01;100147.00;1733259;80;21137;-71
2021/12/05 01:23:00;;;;;;;38.88;25.08;;;;;;;-1.01;64.16;100143.56;1722761;81;21063;-70
2021/12/05 01:28:19;;;;;;;39.58;25.00;;;;;;;-1.00;64.33;100146.55;1727705;82;21518;-70
2021/12/05 01:33:05;;;;;;;33.80;22.10;;;;;;;-1.04;64.21;100147.11;1734690;80;22278;-72
2021/12/05 01:38:37;;;;;;;39.53;24.40;;;;;;;-1.05;64.21;100132.50;1692027;81;21070;-71
2021/12/05 01:41:11;;;;;;;36.03;20.17;;;;;;;-1.05;64.21;100132.50;1710434;81;21077;-71
2021/12/05 01:54:46;;;;;;;34.35;21.62;;;;;;;-1.06;63.51;100146.33;1733663;80;20980;-69
2021/12/05 01:59:59;;;;;;;34.27;21.30;;;;;;;-1.12;63.04;100144.79;1737310;80;21098;-70
2021/12/05 02:07:59;;;;;;;36.45;22.00;;;;;;;-1.21;62.08;100147.71;1727950;81;21043;-69
2021/12/05 02:15:51;;;;;;;35.30;22.52;;;;;;;-1.29;62.01;100138.52;1742813;81;22116;-70
2021/12/05 02:37:32;;;;;;;42.30;24.40;;;;;;;-1.39;62.33;100137.57;1743690;80;21013;-69
2021/12/05 02:42:31;;;;;;;42.73;25.55;;;;;;;-1.43;63.04;100132.13;1747840;80;21071;-69
2021/12/05 02:44:55;;;;;;;35.38;23.65;;;;;;;-1.43;63.24;100133.85;1723468;80;21959;-69
2021/12/05 02:47:25;;;;;;;38.15;23.25;;;;;;;-1.43;63.16;100132.56;1738380;80;21050;-69
2021/12/05 02:49:55;;;;;;;43.15;26.42;;;;;;;-1.41;62.72;100129.05;1740791;80;21064;-69
2021/12/05 02:52:30;;;;;;;46.05;27.32;;;;;;;-1.43;63.34;100131.27;1753787;80;21505;-69
2021/12/05 02:55:05;;;;;;;43.15;24.85;;;;;;;-1.43;63.34;100131.27;1750548;80;21105;-69
2021/12/05 02:57:53;;;;;;;44.55;24.82;;;;;;;-1.47;63.25;100128.41;1743804;81;21095;-70
2021/12/05 03:00:09;;;;;;;35.10;24.95;;;;;;;-1.44;63.02;100116.70;1742803;80;21055;-70
2021/12/05 03:02:39;;;;;;;38.42;22.58;;;;;;;-1.43;62.75;100115.78;1746598;80;21067;-69
2021/12/05 03:05:08;;;;;;;39.10;23.10;;;;;;;-1.42;62.45;100113.16;1705974;80;21755;-69
2021/12/05 03:07:38;;;;;;;35.45;22.82;;;;;;;-1.44;62.15;100110.25;1742890;80;21960;-69
2021/12/05 03:10:01;;;;;;;32.75;19.60;;;;;;;-1.46;62.14;100112.88;1747324;80;21443;-70
2021/12/05 03:12:29;;;;;;;35.95;22.40;;;;;;;-1.45;62.10;100109.84;1748058;80;21607;-69
2021/12/05 03:15:04;;;;;;;29.00;19.07;;;;;;;-1.45;62.17;100109.38;1749965;80;21494;-70
2021/12/05 03:17:32;;;;;;;33.30;20.15;;;;;;;-1.50;61.85;100103.54;1734277;81;21828;-70
2021/12/05 03:19:59;;;;;;;33.63;21.75;;;;;;;-1.53;61.69;100107.09;1732270;80;21106;-69
2021/12/05 03:22:26;;;;;;;31.45;18.55;;;;;;;-1.61;61.81;100100.51;1718140;80;21578;-69
2021/12/05 03:24:53;;;;;;;32.80;20.48;;;;;;;-1.61;61.81;100100.51;1732622;81;21063;-69
2021/12/05 03:27:20;;;;;;;34.70;21.15;;;;;;;-1.60;61.63;100107.34;1751236;80;21101;-70
2021/12/05 03:29:47;;;;;;;34.55;19.55;;;;;;;-1.63;61.65;100102.28;1727753;80;21143;-69
2021/12/05 03:32:15;;;;;;;30.08;18.60;;;;;;;-1.61;61.58;100099.22;1730377;80;21605;-69
2021/12/05 03:34:43;;;;;;;26.10;16.40;;;;;;;-1.63;61.67;100091.53;1728893;80;21055;-70
2021/12/05 03:37:11;;;;;;;27.30;16.82;;;;;;;-1.62;61.90;100093.66;1748105;80;21368;-70
2021/12/05 03:39:39;;;;;;;24.25;15.38;;;;;;;-1.58;62.31;100091.34;1750317;80;21118;-69
2021/12/05 03:42:06;;;;;;;30.48;15.13;;;;;;;-1.54;62.63;100095.52;1749134;80;22827;-71
2021/12/05 03:44:35;;;;;;;21.45;13.93;;;;;;;-1.46;62.73;100090.94;1731628;81;21012;-69
2021/12/05 03:47:05;;;;;;;23.77;14.53;;;;;;;-1.42;62.82;100087.34;1741515;80;21087;-71
2021/12/05 03:49:33;;;;;;;22.35;13.95;;;;;;;-1.35;63.08;100084.93;1723262;80;21110;-70
2021/12/05 03:52:04;;;;;;;24.00;13.03;;;;;;;-1.25;63.36;100080.28;1736705;80;21594;-70
2021/12/05 03:54:32;;;;;;;24.90;11.25;;;;;;;-1.21;63.23;100080.59;1730624;80;22627;-68
2021/12/05 03:57:00;;;;;;;20.85;11.93;;;;;;;-1.23;63.33;100074.61;1713284;81;21558;-68
2021/12/05 03:59:28;;;;;;;21.70;12.55;;;;;;;-1.26;63.69;100081.20;1730983;82;21052;-68
2021/12/05 04:01:57;;;;;;;21.37;13.20;;;;;;;-1.28;63.98;100073.10;1720118;80;21554;-68
2021/12/05 04:04:24;;;;;;;18.52;11.97;;;;;;;-1.27;64.10;100067.89;1733391;80;21071;-69
2021/12/05 04:06:51;;;;;;;15.55;9.83;;;;;;;-1.27;64.36;100071.77;1730513;80;21770;-68
2021/12/05 04:09:19;;;;;;;17.62;11.03;;;;;;;-1.28;64.61;100075.23;1695898;82;21113;-66
2021/12/05 04:12:01;;;;;;;20.32;10.98;;;;;;;-1.24;64.86;100061.78;1721638;80;20996;-68
2021/12/05 04:14:19;;;;;;;15.60;10.48;;;;;;;-1.19;64.79;100062.46;1730631;80;21154;-69
2021/12/05 04:16:47;;;;;;;18.45;11.15;;;;;;;-1.11;64.85;100053.95;1732786;80;21047;-69
2021/12/05 04:19:14;;;;;;;18.25;10.85;;;;;;;-1.06;64.80;100052.08;1732801;80;21353;-69
2021/12/05 04:21:41;;;;;;;25.85;10.70;;;;;;;-1.00;64.81;100054.41;1734111;80;21059;-69
2021/12/05 04:24:11;;;;;;;17.67;11.38;;;;;;;-0.94;64.70;100064.52;1731515;80;21077;-68
2021/12/05 04:26:38;;;;;;;20.57;12.65;;;;;;;-0.91;64.66;100069.17;1734643;80;21047;-69
2021/12/05 04:29:05;;;;;;;21.90;11.50;;;;;;;-0.89;64.59;100078.56;1734169;80;21398;-68
2021/12/05 04:31:32;;;;;;;17.82;11.38;;;;;;;-0.89;64.59;100078.56;1733054;81;22644;-67
2021/12/05 04:33:59;;;;;;;18.42;11.48;;;;;;;-0.90;64.41;100085.07;1734012;81;20992;-68
2021/12/05 04:36:26;;;;;;;17.85;10.72;;;;;;;-0.90;64.39;100092.36;1721205;81;21055;-67
2021/12/05 04:38:53;;;;;;;20.27;11.60;;;;;;;-0.93;64.37;100101.51;1729997;80;21117;-67
2021/12/05 04:41:20;;;;;;;22.40;12.15;;;;;;;-0.95;64.11;100100.27;1732281;80;21367;-67
2021/12/05 04:43:50;;;;;;;18.82;11.75;;;;;;;-0.97;64.08;100096.91;1736338;80;21102;-66
2021/12/05 04:46:21;;;;;;;17.67;11.53;;;;;;;-1.03;63.29;100097.59;1737023;80;21573;-67
2021/12/05 04:48:50;;;;;;;22.05;12.55;;;;;;;-1.03;63.29;100097.59;1735404;80;21130;-67
2021/12/05 04:51:18;;;;;;;19.35;11.28;;;;;;;-1.06;63.53;100105.44;1719705;80;21046;-67
2021/12/05 04:53:47;;;;;;;18.52;12.05;;;;;;;-1.10;63.25;100106.46;1736897;80;21083;-67
2021/12/05 04:57:02;;;;;;;23.05;13.83;;;;;;;-1.12;63.20;100105.22;1854381;75;22389;-69
2021/12/05 04:59:35;;;;;;;20.45;11.80;;;;;;;-1.15;63.05;100113.08;1824645;77;21076;-68
2021/12/05 05:01:59;;;;;;;24.60;13.95;;;;;;;-1.15;62.20;100116.95;1821903;77;21112;-68
2021/12/05 05:04:28;;;;;;;24.47;14.85;;;;;;;-1.20;62.06;100104.20;1824358;77;21175;-68
2021/12/05 05:07:00;;;;;;;18.98;12.07;;;;;;;-1.20;62.06;100104.20;1822997;77;21030;-69
2021/12/05 05:09:26;;;;;;;23.38;12.43;;;;;;;-1.23;62.06;100109.92;1816585;77;21053;-69
2021/12/05 05:11:53;;;;;;;23.05;12.53;;;;;;;-1.28;62.02;100118.28;1827298;77;20962;-68
2021/12/05 05:14:19;;;;;;;20.37;13.45;;;;;;;-1.34;61.81;100121.47;1823933;77;22250;-68
2021/12/05 05:16:52;;;;;;;21.95;13.30;;;;;;;-1.38;62.01;100122.48;1822950;77;21674;-70
2021/12/05 05:19:17;;;;;;;22.95;13.25;;;;;;;-1.41;62.37;100129.05;1820917;77;21133;-67
2021/12/05 05:21:51;;;;;;;24.10;13.53;;;;;;;-1.43;62.32;100124.81;1823732;77;21070;-67
2021/12/05 05:30:20;;;;;;;19.00;12.18;;;;;;;-1.53;61.93;100128.16;1816637;77;21007;-69
2021/12/05 05:46:04;;;;;;;20.35;12.13;;;;;;;-1.59;62.61;100111.61;1815598;77;21097;-69
2021/12/05 05:48:33;;;;;;;22.13;11.93;;;;;;;-1.54;62.71;100119.58;1797289;78;21080;-70
2021/12/05 05:50:55;;;;;;;21.70;10.63;;;;;;;-1.52;62.89;100125.98;1824945;77;21119;-71
2021/12/05 05:53:22;;;;;;;20.85;11.22;;;;;;;-1.49;63.15;100128.47;1830538;77;21293;-72
2021/12/05 05:55:49;;;;;;;19.25;12.05;;;;;;;-1.42;63.13;100139.42;1822166;77;22130;-71
2021/12/05 05:58:18;;;;;;;22.50;12.25;;;;;;;-1.35;63.14;100139.59;1824187;77;21094;-72
2021/12/05 06:01:05;;;;;;;22.62;11.63;;;;;;;-1.25;63.12;100142.25;1820325;77;21010;-75
2021/12/05 06:03:27;;;;;;;19.17;11.15;;;;;;;-1.14;63.24;100140.14;1822848;77;21131;-70
2021/12/05 06:06:01;;;;;;;19.67;11.55;;;;;;;-1.04;63.07;100123.00;1818045;77;21309;-73
2021/12/05 06:08:31;;;;;;;19.23;11.30;;;;;;;-0.99;63.11;100138.75;1791438;78;21085;-75
2021/12/05 06:11:06;;;;;;;21.27;11.40;;;;;;;-0.99;63.11;100138.75;1825556;77;21026;-74
2021/12/05 06:13:33;;;;;;;25.40;14.90;;;;;;;-0.96;62.84;100136.06;1821296;77;21056;-73
2021/12/05 06:16:02;;;;;;;19.07;11.28;;;;;;;-0.96;62.84;100136.06;1823692;77;21563;-73
2021/12/05 06:18:29;;;;;;;20.35;11.60;;;;;;;-0.92;63.40;100144.53;1826591;78;21043;-74
2021/12/05 06:20:56;;;;;;;20.95;12.13;;;;;;;-0.86;63.50;100143.45;1798923;77;21137;-73
2021/12/05 06:23:25;;;;;;;18.12;10.50;;;;;;;-0.81;63.70;100148.87;1826405;77;21559;-71
2021/12/05 06:25:53;;;;;;;19.37;11.90;;;;;;;-0.75;63.73;100138.28;1824521;77;21012;-73
2021/12/05 06:28:26;;;;;;;20.25;12.65;;;;;;;-0.67;63.66;100147.48;1826166;77;21507;-71
2021/12/05 06:46:29;;;;;;;21.52;12.33;;;;;;;-0.42;63.80;100149.98;1818133;77;21014;-62
2021/12/05 06:48:54;;;;;;;21.33;12.60;;;;;;;-0.35;63.73;100156.63;1823086;77;20939;-74
2021/12/05 06:51:24;;;;;;;19.12;11.45;;;;;;;-0.30;63.69;100156.42;1817698;77;21026;-69
2021/12/05 06:54:00;;;;;;;19.77;12.15;;;;;;;-0.28;63.69;100154.65;1791347;78;21616;-66
2021/12/05 06:56:26;;;;;;;20.62;12.23;;;;;;;-0.26;63.85;100160.59;1817216;77;21054;-67
2021/12/05 06:58:53;;;;;;;21.52;11.78;;;;;;;-0.14;63.87;100154.93;1822423;78;21059;-67
2021/12/05 07:01:21;;;;;;;18.75;11.70;;;;;;;-0.14;63.87;100154.93;1816572;77;21062;-66
2021/12/05 07:03:49;;;;;;;23.67;12.30;;;;;;;-0.11;63.81;100159.16;1821250;77;21065;-67
2021/12/05 07:06:24;;;;;;;22.60;13.35;;;;;;;-0.07;63.49;100165.87;1818428;77;21688;-68
2021/12/05 07:08:53;;;;;;;25.20;12.25;;;;;;;-0.07;63.49;100165.87;1815665;77;21434;-68
2021/12/05 07:11:29;;;;;;;18.90;11.73;;;;;;;-0.10;63.75;100158.23;1811568;77;21592;-72
2021/12/05 07:19:39;;;;;;;17.37;10.72;;;;;;;-0.03;63.92;100168.30;1793168;77;21057;-74
2021/12/05 07:22:00;;;;;;;22.85;12.58;;;;;;;-0.07;63.77;100171.92;1791404;77;21643;-72
2021/12/05 07:40:30;;;;;;;21.25;12.40;;;;;;;0.10;64.48;100182.89;1816890;78;21038;-73
2021/12/05 07:43:03;;;;;;;20.72;13.58;;;;;;;0.20;64.54;100180.75;1815786;77;21545;-73
2021/12/05 07:45:42;;;;;;;21.68;13.00;;;;;;;0.27;64.45;100182.64;1793320;78;22662;-71
2021/12/05 07:48:11;;;;;;;20.30;11.97;;;;;;;0.36;64.10;100175.80;1746064;80;22018;-73
2021/12/05 07:50:46;;;;;;;22.52;12.85;;;;;;;0.44;64.29;100184.53;1762918;80;21676;-73
2021/12/05 07:53:14;;;;;;;21.17;12.10;;;;;;;0.53;64.22;100194.52;1752838;78;21089;-73
2021/12/05 07:55:41;;;;;;;21.62;12.00;;;;;;;0.59;63.95;100198.59;1780655;79;21594;-72
2021/12/05 07:58:30;;;;;;;22.93;12.10;;;;;;;0.59;63.95;100198.59;1782294;78;21106;-72
2021/12/05 08:00:55;;;;;;;19.70;11.78;;;;;;;0.62;63.71;100198.01;1778953;78;21133;-71
2021/12/05 08:16:55;;;;;;;21.62;11.03;;;;;;;0.80;63.44;100203.34;1737498;80;21101;-69
2021/12/05 08:19:22;;;;;;;21.95;11.90;;;;;;;0.86;63.15;100201.33;1763496;79;21065;-71
2021/12/05 08:21:55;;;;;;;22.13;12.37;;;;;;;0.89;63.10;100205.09;1767703;79;21055;-70
2021/12/05 08:24:17;;;;;;;20.37;12.73;;;;;;;0.98;63.09;100197.83;1739081;80;21077;-72
2021/12/05 08:26:47;;;;;;;19.62;12.68;;;;;;;1.04;62.90;100202.73;1769476;79;21203;-73
2021/12/05 08:29:16;;;;;;;24.55;12.28;;;;;;;1.11;62.88;100192.50;1763601;80;21666;-72
2021/12/05 08:42:31;;;;;;;23.00;11.20;;;;;;;1.30;61.59;100187.34;1741154;80;21070;-70
2021/12/05 09:25:09;;;;;;;18.75;11.55;;;;;;;1.96;59.26;100153.14;1773498;80;21014;-67
2021/12/05 10:08:21;;;;;;;19.05;11.68;;;;;;;2.89;56.17;100161.11;1770510;79;21072;-68
2021/12/05 10:10:37;;;;;;;17.30;10.23;;;;;;;2.94;55.82;100164.75;1763093;79;21070;-67
2021/12/05 10:26:30;;;;;;;17.90;10.82;;;;;;;3.13;55.22;100172.45;1726376;80;21145;-69
2021/12/05 10:35:06;;;;;;;21.60;11.57;;;;;;;3.29;56.41;100182.87;1768179;79;21553;-68
2021/12/05 10:37:17;;;;;;;18.00;11.33;;;;;;;3.40;56.49;100177.11;1763125;79;21474;-67
2021/12/05 10:39:46;;;;;;;21.70;11.22;;;;;;;3.50;55.92;100186.93;1770989;79;21739;-68
2021/12/05 10:42:37;;;;;;;21.52;12.53;;;;;;;3.56;55.63;100191.42;1775711;80;21538;-68
2021/12/05 10:45:06;;;;;;;20.97;11.78;;;;;;;3.62;55.76;100193.23;1776101;80;21339;-67
2021/12/05 10:47:42;;;;;;;19.45;11.05;;;;;;;3.72;55.65;100201.39;1783328;78;21097;-66
2021/12/05 10:50:33;;;;;;;18.82;11.38;;;;;;;3.80;55.46;100203.11;1782531;80;21112;-65
2021/12/05 10:53:31;;;;;;;21.02;12.47;;;;;;;3.89;55.26;100194.78;1776878;79;21241;-66
2021/12/05 10:56:10;;;;;;;18.55;11.20;;;;;;;3.94;55.41;100189.80;1779219;78;21088;-68
2021/12/05 10:58:55;;;;;;;17.35;10.48;;;;;;;4.02;55.09;100185.01;1780790;78;21041;-66
2021/12/05 11:01:55;;;;;;;20.60;13.90;;;;;;;4.10;54.48;100181.48;1778028;79;21034;-66
2021/12/05 11:04:29;;;;;;;21.20;11.65;;;;;;;4.16;54.65;100177.24;1730571;80;21079;-68
2021/12/05 11:07:14;;;;;;;25.62;14.15;;;;;;;4.18;53.64;100184.97;1767891;79;21762;-66
2021/12/05 11:09:57;;;;;;;23.90;13.88;;;;;;;4.19;53.88;100181.45;1773686;79;21053;-66
2021/12/05 11:12:33;;;;;;;21.73;14.05;;;;;;;4.21;54.56;100172.61;1774701;79;21090;-65
2021/12/05 11:15:13;;;;;;;26.02;15.10;;;;;;;4.22;54.84;100163.88;1748460;79;21046;-64
2021/12/05 11:17:43;;;;;;;24.10;13.70;;;;;;;4.22;54.72;100166.48;1784074;79;21129;-67
2021/12/05 11:20:17;;;;;;;27.80;14.33;;;;;;;4.19;54.84;100164.53;1773756;79;21129;-67
2021/12/05 11:22:46;;;;;;;24.25;14.73;;;;;;;4.13;54.95;100163.09;1775492;79;21105;-68
2021/12/05 11:25:16;;;;;;;27.07;15.40;;;;;;;4.09;54.91;100148.58;1776736;80;21089;-66
2021/12/05 11:27:53;;;;;;;29.18;15.18;;;;;;;4.02;54.87;100153.30;1778549;79;21002;-67
2021/12/05 11:30:23;;;;;;;23.45;13.88;;;;;;;3.94;55.32;100165.07;1776262;79;21102;-66
2021/12/05 11:32:55;;;;;;;27.73;16.23;;;;;;;3.85;55.59;100159.45;1775598;79;21141;-65
2021/12/05 11:35:37;;;;;;;25.95;14.23;;;;;;;3.82;55.82;100156.18;1780515;79;21059;-68
2021/12/05 11:38:25;;;;;;;26.48;14.13;;;;;;;3.76;55.88;100152.61;1771369;79;21117;-67
2021/12/05 11:41:03;;;;;;;23.45;14.00;;;;;;;3.71;55.83;100145.87;1779305;79;21472;-67
2021/12/05 11:43:49;;;;;;;25.65;14.13;;;;;;;3.69;55.77;100155.53;1783140;79;21121;-69
2021/12/05 11:46:30;;;;;;;21.05;12.65;;;;;;;3.64;55.63;100159.33;1744559;79;21158;-66
2021/12/05 11:49:02;;;;;;;23.25;14.35;;;;;;;3.57;55.80;100154.92;1774803;79;21005;-66
2021/12/05 11:51:34;;;;;;;23.02;14.03;;;;;;;3.50;55.95;100160.91;1778207;79;21045;-66
2021/12/05 11:54:10;;;;;;;27.48;14.87;;;;;;;3.46;56.34;100165.92;1775864;80;21070;-66
2021/12/05 11:56:47;;;;;;;27.55;15.00;;;;;;;3.45;56.47;100160.33;1772567;80;21061;-66
2021/12/05 11:59:19;;;;;;;24.55;14.20;;;;;;;3.44;56.67;100167.73;1777435;78;21153;-67
2021/12/05 12:02:00;;;;;;;25.30;14.40;;;;;;;3.46;56.70;100163.76;1776729;79;21085;-65
2021/12/05 12:04:57;;;;;;;28.17;16.00;;;;;;;3.47;56.88;100164.15;1775922;79;21069;-65
2021/12/05 12:07:49;;;;;;;22.27;14.25;;;;;;;3.48;56.93;100163.20;1779380;79;21069;-66
2021/12/05 12:10:46;;;;;;;23.42;13.80;;;;;;;3.50;56.87;100164.81;1710710;80;21596;-66
2021/12/05 12:13:19;;;;;;;;;;;;;;;3.43;56.60;100170.42;1779578;80;21146;-66
2021/12/05 12:15:57;;;;;;;23.62;14.23;;;;;;;3.38;56.58;100180.23;1774524;79;20142;-65
2021/12/05 12:18:26;;;;;;;26.37;14.63;;;;;;;3.32;56.47;100182.71;1786035;79;22240;-65
2021/12/05 12:20:46;;;;;;;24.47;14.63;;;;;;;3.33;56.38;100182.63;1769840;79;21102;-65
2021/12/05 12:23:15;;;;;;;20.92;13.30;;;;;;;3.29;56.01;100172.47;1770558;80;21049;-65
2021/12/05 12:25:43;;;;;;;22.67;13.78;;;;;;;3.20;56.10;100172.50;1773391;79;21083;-66
2021/12/05 12:28:10;;;;;;;26.57;14.98;;;;;;;3.14;56.25;100185.38;1766673;79;21706;-64
2021/12/05 12:30:40;;;;;;;24.40;15.32;;;;;;;3.10;56.31;100175.20;1775163;80;21019;-65
2021/12/05 12:33:19;;;;;;;25.10;14.20;;;;;;;3.06;56.20;100184.06;1780006;80;21077;-63
2021/12/05 12:35:46;;;;;;;23.85;14.30;;;;;;;2.93;56.30;100192.51;1755661;80;21033;-61
2021/12/05 12:38:26;;;;;;;26.02;14.83;;;;;;;2.78;56.59;100187.63;1775897;79;21811;-64
2021/12/05 12:40:56;;;;;;;26.23;14.15;;;;;;;2.70;56.89;100188.47;1780685;80;21014;-64
2021/12/05 12:43:58;;;;;;;23.98;14.05;;;;;;;2.65;57.04;100185.73;1771616;79;21058;-65
2021/12/05 12:46:41;;;;;;;26.23;14.30;;;;;;;2.62;57.05;100185.89;1777548;78;21073;-62
2021/12/05 12:49:22;;;;;;;22.62;14.63;;;;;;;2.44;57.32;100183.73;1780515;79;21382;-64
2021/12/05 12:51:57;;;;;;;27.87;16.35;;;;;;;2.37;57.70;100185.36;1770732;80;21862;-63
2021/12/05 12:54:43;;;;;;;24.55;16.02;;;;;;;2.33;57.81;100176.48;1756791;80;21507;-63
2021/12/05 12:57:29;;;;;;;26.27;15.45;;;;;;;2.29;57.83;100175.80;1767689;79;21045;-68
2021/12/05 13:00:05;;;;;;;26.93;16.23;;;;;;;2.19;57.85;100181.06;1770891;80;21569;-66
2021/12/05 13:11:19;;;;;;;26.60;16.05;;;;;;;1.99;58.64;100186.74;1780327;78;21030;-66
2021/12/05 13:13:51;;;;;;;27.25;15.30;;;;;;;1.96;58.60;100182.98;1770809;80;21040;-66
2021/12/05 13:16:21;;;;;;;25.65;15.38;;;;;;;1.90;58.71;100183.30;1779697;78;21096;-68
2021/12/05 13:18:51;;;;;;;28.92;15.65;;;;;;;1.89;58.72;100184.67;1769322;80;21744;-68
2021/12/05 13:21:36;;;;;;;25.17;14.38;;;;;;;1.82;58.86;100190.14;1768315;80;21042;-64
2021/12/05 13:24:03;;;;;;;24.60;14.35;;;;;;;1.81;58.85;100187.61;1775167;80;21102;-66
2021/12/05 13:26:42;;;;;;;22.20;14.10;;;;;;;1.75;58.96;100189.19;1743670;80;21113;-62
2021/12/05 13:29:21;;;;;;;26.75;14.60;;;;;;;1.70;58.99;100179.48;1776653;80;21541;-68
2021/12/05 13:31:56;;;;;;;28.20;14.60;;;;;;;1.59;59.20;100197.67;1782175;80;22712;-67
2021/12/05 13:34:43;;;;;;;26.10;14.65;;;;;;;1.53;59.41;100205.76;1777265;80;21584;-66
2021/12/05 13:37:16;;;;;;;22.52;13.22;;;;;;;1.47;59.57;100210.75;1767625;78;21042;-68
2021/12/05 13:39:52;;;;;;;24.25;15.18;;;;;;;1.40;59.58;100203.33;1777662;79;21469;-68
2021/12/05 13:42:42;;;;;;;22.77;14.87;;;;;;;1.33;59.87;100196.72;1782142;79;21034;-68
2021/12/05 13:45:16;;;;;;;27.42;15.78;;;;;;;1.32;60.03;100209.31;1781491;78;21503;-66
2021/12/05 13:48:00;;;;;;;22.45;14.98;;;;;;;1.23;60.14;100205.38;1782771;79;21505;-68
2021/12/05 13:50:35;;;;;;;22.80;13.72;;;;;;;1.18;60.18;100202.98;1781560;78;21109;-70
2021/12/05 13:53:10;;;;;;;23.55;14.45;;;;;;;1.17;60.30;100212.12;1784124;78;21298;-68
2021/12/05 13:55:49;;;;;;;27.62;14.55;;;;;;;1.18;60.34;100210.76;1780637;80;21061;-67
2021/12/05 13:58:40;;;;;;;22.77;14.55;;;;;;;1.21;60.40;100215.81;1780525;78;21145;-68
2021/12/05 14:01:29;;;;;;;25.82;14.65;;;;;;;1.21;60.47;100221.00;1688651;83;21622;-67
2021/12/05 14:04:23;;;;;;;25.65;15.45;;;;;;;1.21;60.52;100222.29;1690184;83;21108;-65
2021/12/05 14:07:01;;;;;;;29.15;16.37;;;;;;;1.18;60.41;100226.30;1691648;84;21046;-66
2021/12/05 14:09:47;;;;;;;29.48;15.80;;;;;;;1.11;60.43;100228.78;1685529;83;21551;-61
2021/12/05 14:12:19;;;;;;;;;;;;;;;1.04;60.69;100228.64;1690098;83;21762;-70
2021/12/05 14:14:55;;;;;;;26.65;16.02;;;;;;;1.00;60.89;100227.10;1690765;83;20229;-66
2021/12/05 14:17:32;;;;;;;27.43;14.53;;;;;;;0.95;61.01;100227.75;1686914;83;21085;-64
2021/12/05 14:20:19;;;;;;;24.32;15.65;;;;;;;0.91;60.94;100227.88;1703963;82;21098;-65
2021/12/05 14:22:48;;;;;;;24.90;14.95;;;;;;;0.90;60.81;100235.25;1697608;82;21053;-65
2021/12/05 14:25:22;;;;;;;24.87;15.10;;;;;;;0.84;60.52;100230.78;1696369;83;21100;-65
2021/12/05 14:27:52;;;;;;;29.87;16.07;;;;;;;0.82;60.48;100237.78;1679726;84;21182;-65
2021/12/05 14:30:21;;;;;;;20.62;14.00;;;;;;;0.81;60.68;100236.95;1690058;83;21081;-67
2021/12/05 14:32:52;;;;;;;23.38;13.48;;;;;;;0.84;60.49;100233.37;1760615;78;21171;-65
2021/12/05 14:35:22;;;;;;;24.15;14.93;;;;;;;0.83;60.62;100245.49;1757509;80;21076;-66
2021/12/05 14:37:50;;;;;;;26.65;15.58;;;;;;;0.84;60.46;100241.14;1783506;78;21081;-67
2021/12/05 14:40:20;;;;;;;28.40;16.85;;;;;;;0.81;60.39;100239.54;1756967;80;20974;-68
2021/12/05 14:42:50;;;;;;;26.80;15.08;;;;;;;0.80;60.23;100249.50;1761691;81;20994;-69
2021/12/05 14:45:22;;;;;;;28.38;16.30;;;;;;;0.76;60.25;100253.14;1785867;78;21106;-67
2021/12/05 14:47:50;;;;;;;27.93;16.42;;;;;;;0.77;60.32;100253.51;1742413;80;21013;-67
2021/12/05 14:50:30;;;;;;;25.97;16.17;;;;;;;0.76;60.14;100262.63;1771235;79;21519;-66
2021/12/05 14:53:00;;;;;;;27.30;16.80;;;;;;;0.72;59.92;100256.74;1783423;79;21040;-67
2021/12/05 14:55:29;;;;;;;24.85;15.40;;;;;;;0.63;60.10;100270.91;1777905;78;21160;-67
2021/12/05 14:58:00;;;;;;;26.95;16.97;;;;;;;0.62;60.24;100270.52;1774706;78;21052;-68
2021/12/05 15:00:37;;;;;;;29.65;16.02;;;;;;;0.62;60.25;100274.40;1780949;78;21046;-66
2021/12/05 15:03:13;;;;;;;26.73;16.05;;;;;;;0.63;60.03;100272.67;1774262;79;21141;-69
2021/12/05 15:05:42;;;;;;;28.98;15.58;;;;;;;0.57;60.08;100276.80;1767089;78;21540;-68
2021/12/05 15:08:12;;;;;;;29.42;16.23;;;;;;;0.56;60.19;100279.84;1783447;80;21473;-68
2021/12/05 15:10:41;;;;;;;29.23;16.48;;;;;;;0.56;60.19;100279.84;1782635;78;21532;-65
2021/12/05 15:13:09;;;;;;;32.10;17.23;;;;;;;0.59;60.19;100278.86;1770324;80;21439;-68
2021/12/05 15:15:36;;;;;;;25.82;14.58;;;;;;;0.62;60.12;100286.52;1769317;79;21547;-63
2021/12/05 15:18:03;;;;;;;30.70;18.07;;;;;;;0.62;60.12;100286.52;1770756;78;21062;-67
2021/12/05 15:20:32;;;;;;;28.90;16.45;;;;;;;0.61;59.79;100299.09;1769974;79;21046;-66
2021/12/05 15:23:08;;;;;;;26.05;16.23;;;;;;;0.51;59.90;100298.14;1771527;79;21101;-68
2021/12/05 15:25:36;;;;;;;26.42;16.17;;;;;;;0.49;60.05;100306.44;1774909;79;21463;-68
2021/12/05 15:28:04;;;;;;;32.63;17.50;;;;;;;0.46;60.17;100309.14;1783072;80;21095;-66
2021/12/05 15:30:41;;;;;;;28.27;16.05;;;;;;;0.44;60.21;100313.97;1779978;80;21062;-65
2021/12/05 15:33:11;;;;;;;33.02;18.05;;;;;;;0.42;60.50;100319.23;1780539;79;21082;-65
2021/12/05 15:35:38;;;;;;;32.05;17.80;;;;;;;0.39;60.49;100316.76;1780697;79;21006;-65
2021/12/05 15:38:08;;;;;;;35.35;19.82;;;;;;;0.40;60.59;100322.31;1782807;78;21094;-69
2021/12/05 15:40:39;;;;;;;37.80;18.82;;;;;;;0.32;60.85;100304.94;1780600;78;21791;-68
2021/12/05 15:43:14;;;;;;;38.35;19.40;;;;;;;0.32;60.85;100304.94;1783382;80;21078;-67
2021/12/05 15:45:41;;;;;;;39.00;19.95;;;;;;;0.30;60.93;100301.14;1780043;79;20995;-70
2021/12/05 15:48:08;;;;;;;37.15;19.67;;;;;;;0.31;61.07;100293.75;1778278;79;21269;-69
2021/12/05 15:50:38;;;;;;;40.55;20.08;;;;;;;0.32;61.08;100290.27;1775741;80;21539;-66
2021/12/05 15:53:11;;;;;;;45.48;20.92;;;;;;;0.41;61.16;100291.65;1774078;79;21118;-67
2021/12/05 15:55:50;;;;;;;38.88;20.23;;;;;;;0.41;61.31;100285.18;1775082;79;21046;-68
2021/12/05 15:58:31;;;;;;;39.78;21.12;;;;;;;0.46;61.15;100287.13;1777029;79;21137;-69
2021/12/05 16:00:57;;;;;;;41.70;18.77;;;;;;;0.47;61.19;100290.55;1784471;79;21049;-70
2021/12/05 16:03:24;;;;;;;34.25;18.82;;;;;;;0.46;61.16;100283.70;1712002;80;21126;-68
2021/12/05 16:05:58;;;;;;;36.68;20.27;;;;;;;0.45;61.25;100285.44;1777829;79;21121;-67
2021/12/05 16:08:29;;;;;;;34.70;20.40;;;;;;;0.45;61.38;100283.30;1777799;80;21050;-69
2021/12/05 16:10:59;;;;;;;41.30;21.20;;;;;;;0.45;61.66;100284.14;1775024;80;21517;-68
2021/12/05 16:13:41;;;;;;;44.70;21.23;;;;;;;0.47;61.55;100276.31;1779563;79;21191;-68
2021/12/05 16:16:23;;;;;;;39.50;21.15;;;;;;;0.50;61.71;100279.62;1780507;79;21000;-68
2021/12/05 16:18:53;;;;;;;39.13;19.92;;;;;;;0.53;61.78;100269.14;1775300;79;21063;-68
2021/12/05 16:21:29;;;;;;;37.28;19.65;;;;;;;0.58;61.68;100275.91;1772071;79;21039;-68
2021/12/05 16:23:59;;;;;;;28.38;17.23;;;;;;;0.59;61.69;100269.80;1776396;80;20995;-69
2021/12/05 16:26:27;;;;;;;31.40;16.87;;;;;;;0.62;61.47;100264.04;1772999;79;21627;-68
2021/12/05 16:29:05;;;;;;;32.55;17.42;;;;;;;0.55;61.52;100272.54;1779564;79;21097;-67
2021/12/05 16:31:41;;;;;;;22.10;12.85;;;;;;;0.52;61.67;100277.84;1764600;79;21117;-68
2021/12/05 16:34:20;;;;;;;19.50;12.15;;;;;;;0.46;61.87;100279.36;1779410;80;21105;-68